sensor_id;sensor_type;location;lat;lon;timestamp;P1;durP1;ratioP1;P2;durP2;ratioP2
10985;SDS011;5546;48.714;8.738;2023-06-22T00:00:42;9.68;;;8.00;;
10985;SDS011;5546;48.714;8.738;2023-06-22T00:03:09;8.43;;;7.63;;
10985;SDS011;5546;48.714;8.738;2023-06-22T00:05:35;12.18;;;8.48;;
10985;SDS011;5546;48.714;8.738;2023-06-22T00:08:02;9.13;;;7.93;;
10985;SDS011;5546;48.714;8.738;2023-06-22T00:10:29;11.05;;;8.82;;
10985;SDS011;5546;48.714;8.738;2023-06-22T00:12:55;10.30;;;8.18;;
10985;SDS011;5546;48.714;8.738;2023-06-22T00:15:21;10.70;;;8.82;;
10985;SDS011;5546;48.714;8.738;2023-06-22T00:17:47;10.13;;;8.30;;
10985;SDS011;5546;48.714;8.738;2023-06-22T00:20:13;11.65;;;8.00;;
10985;SDS011;5546;48.714;8.738;2023-06-22T00:22:39;9.63;;;8.15;;
10985;SDS011;5546;48.714;8.738;2023-06-22T00:25:06;11.35;;;8.02;;
10985;SDS011;5546;48.714;8.738;2023-06-22T00:27:32;8.90;;;7.80;;
10985;SDS011;5546;48.714;8.738;2023-06-22T00:29:57;8.55;;;7.68;;
10985;SDS011;5546;48.714;8.738;2023-06-22T00:32:23;10.48;;;7.97;;
10985;SDS011;5546;48.714;8.738;2023-06-22T00:34:48;9.07;;;8.18;;
10985;SDS011;5546;48.714;8.738;2023-06-22T00:37:15;9.40;;;8.40;;
10985;SDS011;5546;48.714;8.738;2023-06-22T00:39:42;11.57;;;8.73;;
10985;SDS011;5546;48.714;8.738;2023-06-22T00:42:08;9.63;;;8.70;;
10985;SDS011;5546;48.714;8.738;2023-06-22T00:44:34;12.82;;;8.63;;
10985;SDS011;5546;48.714;8.738;2023-06-22T00:47:00;9.43;;;8.52;;
10985;SDS011;5546;48.714;8.738;2023-06-22T00:49:26;9.60;;;8.73;;
10985;SDS011;5546;48.714;8.738;2023-06-22T00:51:52;10.27;;;9.23;;
10985;SDS011;5546;48.714;8.738;2023-06-22T00:54:19;9.93;;;8.80;;
10985;SDS011;5546;48.714;8.738;2023-06-22T00:56:55;9.25;;;8.32;;
10985;SDS011;5546;48.714;8.738;2023-06-22T00:59:22;9.70;;;8.70;;
10985;SDS011;5546;48.714;8.738;2023-06-22T01:01:49;9.77;;;8.88;;
10985;SDS011;5546;48.714;8.738;2023-06-22T01:04:14;10.20;;;9.02;;
10985;SDS011;5546;48.714;8.738;2023-06-22T01:06:58;12.52;;;8.80;;
10985;SDS011;5546;48.714;8.738;2023-06-22T01:09:44;9.68;;;8.68;;
10985;SDS011;5546;48.714;8.738;2023-06-22T01:12:14;10.30;;;8.48;;
10985;SDS011;5546;48.714;8.738;2023-06-22T01:14:43;9.95;;;8.68;;
10985;SDS011;5546;48.714;8.738;2023-06-22T01:17:17;8.95;;;8.05;;
10985;SDS011;5546;48.714;8.738;2023-06-22T01:19:45;9.70;;;8.55;;
10985;SDS011;5546;48.714;8.738;2023-06-22T01:22:13;11.15;;;8.70;;
10985;SDS011;5546;48.714;8.738;2023-06-22T01:27:19;11.73;;;8.77;;
10985;SDS011;5546;48.714;8.738;2023-06-22T01:30:02;12.35;;;8.93;;
10985;SDS011;5546;48.714;8.738;2023-06-22T01:32:30;10.57;;;8.85;;
10985;SDS011;5546;48.714;8.738;2023-06-22T01:35:00;10.13;;;8.43;;
10985;SDS011;5546;48.714;8.738;2023-06-22T01:37:28;11.30;;;8.68;;
10985;SDS011;5546;48.714;8.738;2023-06-22T01:39:54;11.20;;;8.20;;
10985;SDS011;5546;48.714;8.738;2023-06-22T01:42:23;11.68;;;8.88;;
10985;SDS011;5546;48.714;8.738;2023-06-22T01:44:49;10.75;;;8.90;;
10985;SDS011;5546;48.714;8.738;2023-06-22T01:47:17;12.50;;;8.75;;
10985;SDS011;5546;48.714;8.738;2023-06-22T01:49:43;14.82;;;8.18;;
10985;SDS011;5546;48.714;8.738;2023-06-22T01:52:09;9.90;;;8.85;;
10985;SDS011;5546;48.714;8.738;2023-06-22T01:54:34;11.07;;;8.93;;
10985;SDS011;5546;48.714;8.738;2023-06-22T01:57:00;8.82;;;7.93;;
10985;SDS011;5546;48.714;8.738;2023-06-22T01:59:28;9.77;;;8.13;;
10985;SDS011;5546;48.714;8.738;2023-06-22T02:02:02;9.77;;;8.88;;
10985;SDS011;5546;48.714;8.738;2023-06-22T02:04:34;10.10;;;8.63;;
10985;SDS011;5546;48.714;8.738;2023-06-22T02:07:17;16.52;;;8.93;;
10985;SDS011;5546;48.714;8.738;2023-06-22T02:09:44;9.60;;;8.73;;
10985;SDS011;5546;48.714;8.738;2023-06-22T02:12:12;9.25;;;8.25;;
10985;SDS011;5546;48.714;8.738;2023-06-22T02:14:41;9.50;;;8.60;;
10985;SDS011;5546;48.714;8.738;2023-06-22T02:17:07;11.02;;;8.32;;
10985;SDS011;5546;48.714;8.738;2023-06-22T02:19:37;10.48;;;8.90;;
10985;SDS011;5546;48.714;8.738;2023-06-22T02:22:04;11.52;;;9.27;;
10985;SDS011;5546;48.714;8.738;2023-06-22T02:24:30;10.23;;;9.23;;
10985;SDS011;5546;48.714;8.738;2023-06-22T02:27:00;11.63;;;9.40;;
10985;SDS011;5546;48.714;8.738;2023-06-22T02:29:27;10.63;;;9.40;;
10985;SDS011;5546;48.714;8.738;2023-06-22T02:31:53;11.90;;;9.18;;
10985;SDS011;5546;48.714;8.738;2023-06-22T02:34:20;9.87;;;8.80;;
10985;SDS011;5546;48.714;8.738;2023-06-22T02:36:46;12.73;;;9.88;;
10985;SDS011;5546;48.714;8.738;2023-06-22T02:39:19;9.93;;;9.02;;
10985;SDS011;5546;48.714;8.738;2023-06-22T02:41:47;12.73;;;9.57;;
10985;SDS011;5546;48.714;8.738;2023-06-22T02:44:16;10.83;;;8.87;;
10985;SDS011;5546;48.714;8.738;2023-06-22T02:46:42;8.95;;;8.10;;
10985;SDS011;5546;48.714;8.738;2023-06-22T02:49:08;12.60;;;8.83;;
10985;SDS011;5546;48.714;8.738;2023-06-22T02:51:34;9.57;;;8.57;;
10985;SDS011;5546;48.714;8.738;2023-06-22T02:54:00;10.60;;;8.48;;
10985;SDS011;5546;48.714;8.738;2023-06-22T02:56:28;9.73;;;8.32;;
10985;SDS011;5546;48.714;8.738;2023-06-22T02:58:55;13.87;;;9.53;;
10985;SDS011;5546;48.714;8.738;2023-06-22T03:01:26;10.15;;;8.60;;
10985;SDS011;5546;48.714;8.738;2023-06-22T03:03:53;14.40;;;8.60;;
10985;SDS011;5546;48.714;8.738;2023-06-22T03:06:19;10.07;;;9.07;;
10985;SDS011;5546;48.714;8.738;2023-06-22T03:08:51;9.93;;;8.93;;
10985;SDS011;5546;48.714;8.738;2023-06-22T03:11:17;10.80;;;9.00;;
10985;SDS011;5546;48.714;8.738;2023-06-22T03:13:42;9.97;;;8.93;;
10985;SDS011;5546;48.714;8.738;2023-06-22T03:16:08;10.20;;;8.77;;
10985;SDS011;5546;48.714;8.738;2023-06-22T03:18:34;11.47;;;8.83;;
10985;SDS011;5546;48.714;8.738;2023-06-22T03:21:00;9.57;;;8.47;;
10985;SDS011;5546;48.714;8.738;2023-06-22T03:23:27;10.90;;;9.83;;
10985;SDS011;5546;48.714;8.738;2023-06-22T03:25:53;10.50;;;9.47;;
10985;SDS011;5546;48.714;8.738;2023-06-22T03:28:20;10.57;;;9.60;;
10985;SDS011;5546;48.714;8.738;2023-06-22T03:30:46;10.13;;;8.95;;
10985;SDS011;5546;48.714;8.738;2023-06-22T03:33:12;12.17;;;9.77;;
10985;SDS011;5546;48.714;8.738;2023-06-22T03:35:38;12.23;;;9.30;;
10985;SDS011;5546;48.714;8.738;2023-06-22T03:38:04;11.80;;;8.97;;
10985;SDS011;5546;48.714;8.738;2023-06-22T03:40:30;10.10;;;9.07;;
10985;SDS011;5546;48.714;8.738;2023-06-22T03:42:55;10.40;;;9.23;;
10985;SDS011;5546;48.714;8.738;2023-06-22T03:45:21;13.47;;;8.07;;
10985;SDS011;5546;48.714;8.738;2023-06-22T03:47:47;10.90;;;9.07;;
10985;SDS011;5546;48.714;8.738;2023-06-22T03:50:13;10.57;;;8.23;;
10985;SDS011;5546;48.714;8.738;2023-06-22T03:52:39;12.80;;;8.87;;
10985;SDS011;5546;48.714;8.738;2023-06-22T03:55:06;10.00;;;8.67;;
10985;SDS011;5546;48.714;8.738;2023-06-22T03:57:32;9.60;;;8.60;;
10985;SDS011;5546;48.714;8.738;2023-06-22T03:59:58;9.80;;;8.43;;
10985;SDS011;5546;48.714;8.738;2023-06-22T04:02:23;12.30;;;8.53;;
10985;SDS011;5546;48.714;8.738;2023-06-22T04:04:49;10.30;;;9.20;;
10985;SDS011;5546;48.714;8.738;2023-06-22T04:07:15;13.43;;;9.13;;
10985;SDS011;5546;48.714;8.738;2023-06-22T04:09:41;12.63;;;9.50;;
10985;SDS011;5546;48.714;8.738;2023-06-22T04:12:07;10.73;;;9.30;;
10985;SDS011;5546;48.714;8.738;2023-06-22T04:14:33;10.07;;;9.17;;
10985;SDS011;5546;48.714;8.738;2023-06-22T04:16:58;10.40;;;8.45;;
10985;SDS011;5546;48.714;8.738;2023-06-22T04:19:24;12.10;;;8.87;;
10985;SDS011;5546;48.714;8.738;2023-06-22T04:21:50;10.70;;;8.75;;
10985;SDS011;5546;48.714;8.738;2023-06-22T04:24:16;9.48;;;8.57;;
10985;SDS011;5546;48.714;8.738;2023-06-22T04:26:42;9.27;;;8.38;;
10985;SDS011;5546;48.714;8.738;2023-06-22T04:29:10;11.52;;;7.85;;
10985;SDS011;5546;48.714;8.738;2023-06-22T04:31:36;12.45;;;8.70;;
10985;SDS011;5546;48.714;8.738;2023-06-22T04:34:03;9.63;;;8.65;;
10985;SDS011;5546;48.714;8.738;2023-06-22T04:36:35;9.90;;;8.88;;
10985;SDS011;5546;48.714;8.738;2023-06-22T04:39:02;8.70;;;7.93;;
10985;SDS011;5546;48.714;8.738;2023-06-22T04:41:32;9.50;;;8.52;;
10985;SDS011;5546;48.714;8.738;2023-06-22T04:44:07;10.57;;;8.18;;
10985;SDS011;5546;48.714;8.738;2023-06-22T04:46:36;9.30;;;8.40;;
10985;SDS011;5546;48.714;8.738;2023-06-22T04:49:06;9.68;;;7.78;;
10985;SDS011;5546;48.714;8.738;2023-06-22T04:51:36;10.93;;;8.48;;
10985;SDS011;5546;48.714;8.738;2023-06-22T04:54:06;10.68;;;8.10;;
10985;SDS011;5546;48.714;8.738;2023-06-22T04:56:32;9.52;;;8.60;;
10985;SDS011;5546;48.714;8.738;2023-06-22T04:58:58;10.50;;;8.05;;
10985;SDS011;5546;48.714;8.738;2023-06-22T05:01:24;9.13;;;8.18;;
10985;SDS011;5546;48.714;8.738;2023-06-22T05:03:50;8.38;;;7.50;;
10985;SDS011;5546;48.714;8.738;2023-06-22T05:06:20;9.50;;;8.52;;
10985;SDS011;5546;48.714;8.738;2023-06-22T05:08:46;12.00;;;8.30;;
10985;SDS011;5546;48.714;8.738;2023-06-22T05:11:12;10.95;;;8.23;;
10985;SDS011;5546;48.714;8.738;2023-06-22T05:13:37;9.45;;;8.00;;
10985;SDS011;5546;48.714;8.738;2023-06-22T05:16:03;9.80;;;8.75;;
10985;SDS011;5546;48.714;8.738;2023-06-22T05:18:30;9.70;;;8.60;;
10985;SDS011;5546;48.714;8.738;2023-06-22T05:20:57;8.98;;;8.07;;
10985;SDS011;5546;48.714;8.738;2023-06-22T05:23:23;11.68;;;7.90;;
10985;SDS011;5546;48.714;8.738;2023-06-22T05:25:49;8.68;;;7.82;;
10985;SDS011;5546;48.714;8.738;2023-06-22T05:28:15;10.00;;;8.30;;
10985;SDS011;5546;48.714;8.738;2023-06-22T05:30:41;9.20;;;8.30;;
10985;SDS011;5546;48.714;8.738;2023-06-22T05:33:06;9.35;;;8.45;;
10985;SDS011;5546;48.714;8.738;2023-06-22T05:35:32;10.18;;;8.65;;
10985;SDS011;5546;48.714;8.738;2023-06-22T05:37:58;8.48;;;7.65;;
10985;SDS011;5546;48.714;8.738;2023-06-22T05:40:24;7.97;;;7.20;;
10985;SDS011;5546;48.714;8.738;2023-06-22T05:42:49;8.35;;;7.53;;
10985;SDS011;5546;48.714;8.738;2023-06-22T05:45:15;8.43;;;7.43;;
10985;SDS011;5546;48.714;8.738;2023-06-22T05:47:41;9.15;;;7.30;;
10985;SDS011;5546;48.714;8.738;2023-06-22T05:50:06;8.88;;;6.78;;
10985;SDS011;5546;48.714;8.738;2023-06-22T05:52:33;8.40;;;7.60;;
10985;SDS011;5546;48.714;8.738;2023-06-22T05:55:01;8.23;;;7.43;;
10985;SDS011;5546;48.714;8.738;2023-06-22T05:57:27;8.43;;;7.65;;
10985;SDS011;5546;48.714;8.738;2023-06-22T05:59:53;8.70;;;7.53;;
10985;SDS011;5546;48.714;8.738;2023-06-22T06:02:19;8.13;;;7.32;;
10985;SDS011;5546;48.714;8.738;2023-06-22T06:04:44;8.02;;;7.22;;
10985;SDS011;5546;48.714;8.738;2023-06-22T06:07:10;8.95;;;6.97;;
10985;SDS011;5546;48.714;8.738;2023-06-22T06:09:35;7.95;;;7.25;;
10985;SDS011;5546;48.714;8.738;2023-06-22T06:12:01;8.25;;;7.35;;
10985;SDS011;5546;48.714;8.738;2023-06-22T06:14:28;9.40;;;7.35;;
10985;SDS011;5546;48.714;8.738;2023-06-22T06:16:54;9.95;;;7.50;;
10985;SDS011;5546;48.714;8.738;2023-06-22T06:19:19;8.00;;;7.15;;
10985;SDS011;5546;48.714;8.738;2023-06-22T06:21:45;8.57;;;7.30;;
10985;SDS011;5546;48.714;8.738;2023-06-22T06:24:11;8.52;;;7.13;;
10985;SDS011;5546;48.714;8.738;2023-06-22T06:26:37;10.07;;;7.55;;
10985;SDS011;5546;48.714;8.738;2023-06-22T06:29:03;11.15;;;7.25;;
10985;SDS011;5546;48.714;8.738;2023-06-22T06:31:28;8.32;;;7.53;;
10985;SDS011;5546;48.714;8.738;2023-06-22T06:33:55;8.82;;;7.25;;
10985;SDS011;5546;48.714;8.738;2023-06-22T06:36:21;10.10;;;7.53;;
10985;SDS011;5546;48.714;8.738;2023-06-22T06:38:46;8.43;;;7.15;;
10985;SDS011;5546;48.714;8.738;2023-06-22T06:41:15;9.85;;;7.68;;
10985;SDS011;5546;48.714;8.738;2023-06-22T06:43:41;10.27;;;7.22;;
10985;SDS011;5546;48.714;8.738;2023-06-22T06:46:10;8.13;;;6.90;;
10985;SDS011;5546;48.714;8.738;2023-06-22T06:48:35;9.73;;;6.80;;
10985;SDS011;5546;48.714;8.738;2023-06-22T06:51:01;9.20;;;7.25;;
10985;SDS011;5546;48.714;8.738;2023-06-22T06:53:27;9.38;;;6.57;;
10985;SDS011;5546;48.714;8.738;2023-06-22T06:55:53;8.00;;;7.07;;
10985;SDS011;5546;48.714;8.738;2023-06-22T06:58:19;9.32;;;7.22;;
10985;SDS011;5546;48.714;8.738;2023-06-22T07:00:44;10.45;;;6.95;;
10985;SDS011;5546;48.714;8.738;2023-06-22T07:03:10;12.95;;;6.65;;
10985;SDS011;5546;48.714;8.738;2023-06-22T07:05:36;11.25;;;6.80;;
10985;SDS011;5546;48.714;8.738;2023-06-22T07:08:02;7.57;;;6.40;;
10985;SDS011;5546;48.714;8.738;2023-06-22T07:10:28;7.70;;;6.30;;
10985;SDS011;5546;48.714;8.738;2023-06-22T07:12:54;9.35;;;7.07;;
10985;SDS011;5546;48.714;8.738;2023-06-22T07:15:22;8.88;;;6.22;;
10985;SDS011;5546;48.714;8.738;2023-06-22T07:17:47;10.43;;;5.78;;
10985;SDS011;5546;48.714;8.738;2023-06-22T07:20:13;7.85;;;6.22;;
10985;SDS011;5546;48.714;8.738;2023-06-22T07:22:41;9.05;;;6.15;;
10985;SDS011;5546;48.714;8.738;2023-06-22T07:25:08;7.40;;;5.72;;
10985;SDS011;5546;48.714;8.738;2023-06-22T07:27:44;11.90;;;5.75;;
10985;SDS011;5546;48.714;8.738;2023-06-22T07:30:11;6.22;;;5.03;;
10985;SDS011;5546;48.714;8.738;2023-06-22T07:32:39;9.95;;;5.15;;
10985;SDS011;5546;48.714;8.738;2023-06-22T07:35:05;11.43;;;5.35;;
10985;SDS011;5546;48.714;8.738;2023-06-22T07:37:31;7.68;;;4.97;;
10985;SDS011;5546;48.714;8.738;2023-06-22T07:39:58;11.30;;;5.70;;
10985;SDS011;5546;48.714;8.738;2023-06-22T07:42:24;9.35;;;5.10;;
10985;SDS011;5546;48.714;8.738;2023-06-22T07:44:51;7.47;;;5.43;;
10985;SDS011;5546;48.714;8.738;2023-06-22T07:47:16;8.57;;;5.32;;
10985;SDS011;5546;48.714;8.738;2023-06-22T07:49:45;9.13;;;5.00;;
10985;SDS011;5546;48.714;8.738;2023-06-22T07:52:14;6.70;;;5.05;;
10985;SDS011;5546;48.714;8.738;2023-06-22T07:54:40;5.93;;;5.00;;
10985;SDS011;5546;48.714;8.738;2023-06-22T07:57:11;9.15;;;5.28;;
10985;SDS011;5546;48.714;8.738;2023-06-22T07:59:37;11.10;;;6.00;;
10985;SDS011;5546;48.714;8.738;2023-06-22T08:02:03;9.00;;;5.53;;
10985;SDS011;5546;48.714;8.738;2023-06-22T08:04:29;6.78;;;4.95;;
10985;SDS011;5546;48.714;8.738;2023-06-22T08:06:56;7.88;;;5.63;;
10985;SDS011;5546;48.714;8.738;2023-06-22T08:09:22;8.20;;;5.50;;
10985;SDS011;5546;48.714;8.738;2023-06-22T08:11:48;9.05;;;5.07;;
10985;SDS011;5546;48.714;8.738;2023-06-22T08:14:14;11.07;;;5.63;;
10985;SDS011;5546;48.714;8.738;2023-06-22T08:16:41;9.05;;;5.85;;
10985;SDS011;5546;48.714;8.738;2023-06-22T08:19:06;9.02;;;5.90;;
10985;SDS011;5546;48.714;8.738;2023-06-22T08:21:32;9.73;;;5.80;;
10985;SDS011;5546;48.714;8.738;2023-06-22T08:23:58;9.60;;;5.57;;
10985;SDS011;5546;48.714;8.738;2023-06-22T08:26:23;8.35;;;5.95;;
10985;SDS011;5546;48.714;8.738;2023-06-22T08:28:49;10.48;;;5.95;;
10985;SDS011;5546;48.714;8.738;2023-06-22T08:31:14;10.88;;;6.35;;
10985;SDS011;5546;48.714;8.738;2023-06-22T08:33:40;12.05;;;5.85;;
10985;SDS011;5546;48.714;8.738;2023-06-22T08:36:08;7.35;;;5.47;;
10985;SDS011;5546;48.714;8.738;2023-06-22T08:38:35;10.23;;;5.70;;
10985;SDS011;5546;48.714;8.738;2023-06-22T08:41:01;9.27;;;5.63;;
10985;SDS011;5546;48.714;8.738;2023-06-22T08:43:27;9.98;;;5.50;;
10985;SDS011;5546;48.714;8.738;2023-06-22T08:45:53;9.55;;;5.68;;
10985;SDS011;5546;48.714;8.738;2023-06-22T08:48:19;10.60;;;5.90;;
10985;SDS011;5546;48.714;8.738;2023-06-22T08:50:44;9.63;;;5.53;;
10985;SDS011;5546;48.714;8.738;2023-06-22T08:53:10;9.32;;;5.72;;
10985;SDS011;5546;48.714;8.738;2023-06-22T08:55:36;7.85;;;5.45;;
10985;SDS011;5546;48.714;8.738;2023-06-22T08:58:01;9.07;;;6.15;;
10985;SDS011;5546;48.714;8.738;2023-06-22T09:00:27;7.88;;;5.53;;
10985;SDS011;5546;48.714;8.738;2023-06-22T09:02:54;9.35;;;5.75;;
10985;SDS011;5546;48.714;8.738;2023-06-22T09:05:23;9.98;;;6.00;;
10985;SDS011;5546;48.714;8.738;2023-06-22T09:07:50;11.32;;;5.32;;
10985;SDS011;5546;48.714;8.738;2023-06-22T09:10:16;9.25;;;5.97;;
10985;SDS011;5546;48.714;8.738;2023-06-22T09:12:43;10.85;;;6.13;;
10985;SDS011;5546;48.714;8.738;2023-06-22T09:15:09;11.60;;;6.15;;
10985;SDS011;5546;48.714;8.738;2023-06-22T09:17:35;10.13;;;5.88;;
10985;SDS011;5546;48.714;8.738;2023-06-22T09:20:01;11.23;;;6.18;;
10985;SDS011;5546;48.714;8.738;2023-06-22T09:22:30;10.02;;;5.65;;
10985;SDS011;5546;48.714;8.738;2023-06-22T09:24:56;10.15;;;5.22;;
10985;SDS011;5546;48.714;8.738;2023-06-22T09:27:22;10.18;;;5.95;;
10985;SDS011;5546;48.714;8.738;2023-06-22T09:29:48;11.55;;;5.30;;
10985;SDS011;5546;48.714;8.738;2023-06-22T09:32:14;12.70;;;5.93;;
10985;SDS011;5546;48.714;8.738;2023-06-22T09:34:40;8.48;;;6.00;;
10985;SDS011;5546;48.714;8.738;2023-06-22T09:37:06;11.20;;;5.93;;
10985;SDS011;5546;48.714;8.738;2023-06-22T09:39:32;11.05;;;5.80;;
10985;SDS011;5546;48.714;8.738;2023-06-22T09:42:00;13.48;;;5.55;;
10985;SDS011;5546;48.714;8.738;2023-06-22T09:44:26;9.20;;;5.90;;
10985;SDS011;5546;48.714;8.738;2023-06-22T09:46:51;11.30;;;6.30;;
10985;SDS011;5546;48.714;8.738;2023-06-22T09:49:17;9.27;;;5.85;;
10985;SDS011;5546;48.714;8.738;2023-06-22T09:51:43;11.15;;;6.15;;
10985;SDS011;5546;48.714;8.738;2023-06-22T09:54:08;12.27;;;5.88;;
10985;SDS011;5546;48.714;8.738;2023-06-22T09:56:34;8.20;;;5.68;;
10985;SDS011;5546;48.714;8.738;2023-06-22T09:59:02;10.70;;;5.80;;
10985;SDS011;5546;48.714;8.738;2023-06-22T10:01:28;10.75;;;5.47;;
10985;SDS011;5546;48.714;8.738;2023-06-22T10:03:53;9.30;;;5.75;;
10985;SDS011;5546;48.714;8.738;2023-06-22T10:06:20;8.05;;;5.88;;
10985;SDS011;5546;48.714;8.738;2023-06-22T10:08:46;9.20;;;5.65;;
10985;SDS011;5546;48.714;8.738;2023-06-22T10:11:13;7.78;;;5.60;;
10985;SDS011;5546;48.714;8.738;2023-06-22T10:13:38;8.30;;;5.50;;
10985;SDS011;5546;48.714;8.738;2023-06-22T10:16:04;8.18;;;5.25;;
10985;SDS011;5546;48.714;8.738;2023-06-22T10:18:30;9.25;;;5.55;;
10985;SDS011;5546;48.714;8.738;2023-06-22T10:20:55;9.60;;;5.78;;
10985;SDS011;5546;48.714;8.738;2023-06-22T10:23:21;10.60;;;5.65;;
10985;SDS011;5546;48.714;8.738;2023-06-22T10:25:47;9.73;;;5.78;;
10985;SDS011;5546;48.714;8.738;2023-06-22T10:28:12;12.15;;;5.90;;
10985;SDS011;5546;48.714;8.738;2023-06-22T10:30:41;10.85;;;5.78;;
10985;SDS011;5546;48.714;8.738;2023-06-22T10:33:07;10.65;;;5.32;;
10985;SDS011;5546;48.714;8.738;2023-06-22T10:35:37;9.70;;;5.40;;
10985;SDS011;5546;48.714;8.738;2023-06-22T10:38:03;8.57;;;5.63;;
10985;SDS011;5546;48.714;8.738;2023-06-22T10:40:29;12.15;;;5.68;;
10985;SDS011;5546;48.714;8.738;2023-06-22T10:42:54;9.38;;;5.88;;
10985;SDS011;5546;48.714;8.738;2023-06-22T10:45:20;8.65;;;6.32;;
10985;SDS011;5546;48.714;8.738;2023-06-22T10:47:46;7.47;;;5.43;;
10985;SDS011;5546;48.714;8.738;2023-06-22T10:50:11;9.50;;;6.10;;
10985;SDS011;5546;48.714;8.738;2023-06-22T10:52:37;11.90;;;5.65;;
10985;SDS011;5546;48.714;8.738;2023-06-22T10:55:06;10.73;;;5.72;;
10985;SDS011;5546;48.714;8.738;2023-06-22T10:57:33;9.38;;;5.70;;
10985;SDS011;5546;48.714;8.738;2023-06-22T10:59:59;15.38;;;6.45;;
10985;SDS011;5546;48.714;8.738;2023-06-22T11:02:24;10.73;;;5.85;;
10985;SDS011;5546;48.714;8.738;2023-06-22T11:04:50;12.93;;;6.28;;
10985;SDS011;5546;48.714;8.738;2023-06-22T11:07:16;11.57;;;6.25;;
10985;SDS011;5546;48.714;8.738;2023-06-22T11:09:44;12.18;;;5.72;;
10985;SDS011;5546;48.714;8.738;2023-06-22T11:12:10;12.38;;;6.00;;
10985;SDS011;5546;48.714;8.738;2023-06-22T11:14:36;11.60;;;5.85;;
10985;SDS011;5546;48.714;8.738;2023-06-22T11:17:02;11.75;;;5.68;;
10985;SDS011;5546;48.714;8.738;2023-06-22T11:19:28;10.48;;;6.05;;
10985;SDS011;5546;48.714;8.738;2023-06-22T11:21:54;9.52;;;5.55;;
10985;SDS011;5546;48.714;8.738;2023-06-22T11:24:19;11.65;;;5.63;;
10985;SDS011;5546;48.714;8.738;2023-06-22T11:26:45;12.00;;;6.20;;
10985;SDS011;5546;48.714;8.738;2023-06-22T11:29:11;10.95;;;5.68;;
10985;SDS011;5546;48.714;8.738;2023-06-22T11:31:37;12.30;;;6.07;;
10985;SDS011;5546;48.714;8.738;2023-06-22T11:34:03;8.77;;;5.35;;
10985;SDS011;5546;48.714;8.738;2023-06-22T11:36:29;11.48;;;5.57;;
10985;SDS011;5546;48.714;8.738;2023-06-22T11:38:57;10.27;;;5.25;;
10985;SDS011;5546;48.714;8.738;2023-06-22T11:41:23;12.18;;;5.72;;
10985;SDS011;5546;48.714;8.738;2023-06-22T11:43:49;11.23;;;5.35;;
10985;SDS011;5546;48.714;8.738;2023-06-22T11:46:14;9.68;;;5.50;;
10985;SDS011;5546;48.714;8.738;2023-06-22T11:48:40;9.55;;;5.50;;
10985;SDS011;5546;48.714;8.738;2023-06-22T11:51:06;10.75;;;5.25;;
10985;SDS011;5546;48.714;8.738;2023-06-22T11:53:33;12.88;;;5.40;;
10985;SDS011;5546;48.714;8.738;2023-06-22T11:55:59;11.75;;;5.35;;
10985;SDS011;5546;48.714;8.738;2023-06-22T11:58:26;11.43;;;6.00;;
10985;SDS011;5546;48.714;8.738;2023-06-22T12:00:51;10.52;;;5.40;;
10985;SDS011;5546;48.714;8.738;2023-06-22T12:03:17;12.80;;;5.72;;
10985;SDS011;5546;48.714;8.738;2023-06-22T12:05:43;10.80;;;5.40;;
10985;SDS011;5546;48.714;8.738;2023-06-22T12:08:09;8.10;;;5.40;;
10985;SDS011;5546;48.714;8.738;2023-06-22T12:10:36;9.93;;;5.30;;
10985;SDS011;5546;48.714;8.738;2023-06-22T12:13:02;11.38;;;5.63;;
10985;SDS011;5546;48.714;8.738;2023-06-22T12:15:28;9.25;;;5.40;;
10985;SDS011;5546;48.714;8.738;2023-06-22T12:17:54;13.00;;;5.20;;
10985;SDS011;5546;48.714;8.738;2023-06-22T12:20:20;11.38;;;5.38;;
10985;SDS011;5546;48.714;8.738;2023-06-22T12:22:45;16.35;;;5.32;;
10985;SDS011;5546;48.714;8.738;2023-06-22T12:25:12;8.52;;;5.47;;
10985;SDS011;5546;48.714;8.738;2023-06-22T12:27:38;10.38;;;5.70;;
10985;SDS011;5546;48.714;8.738;2023-06-22T12:30:04;10.32;;;5.32;;
10985;SDS011;5546;48.714;8.738;2023-06-22T12:32:30;10.38;;;5.40;;
10985;SDS011;5546;48.714;8.738;2023-06-22T12:34:56;9.50;;;5.60;;
10985;SDS011;5546;48.714;8.738;2023-06-22T12:37:22;15.13;;;5.30;;
10985;SDS011;5546;48.714;8.738;2023-06-22T12:39:48;9.00;;;4.97;;
10985;SDS011;5546;48.714;8.738;2023-06-22T12:42:15;11.38;;;5.25;;
10985;SDS011;5546;48.714;8.738;2023-06-22T12:44:41;13.75;;;6.15;;
10985;SDS011;5546;48.714;8.738;2023-06-22T12:47:07;11.70;;;5.65;;
10985;SDS011;5546;48.714;8.738;2023-06-22T12:49:36;10.38;;;5.28;;
10985;SDS011;5546;48.714;8.738;2023-06-22T12:52:02;10.63;;;5.60;;
10985;SDS011;5546;48.714;8.738;2023-06-22T12:54:28;10.38;;;5.75;;
10985;SDS011;5546;48.714;8.738;2023-06-22T12:56:54;12.07;;;5.68;;
10985;SDS011;5546;48.714;8.738;2023-06-22T12:59:20;9.27;;;6.03;;
10985;SDS011;5546;48.714;8.738;2023-06-22T13:01:46;10.93;;;6.18;;
10985;SDS011;5546;48.714;8.738;2023-06-22T13:04:12;9.13;;;5.53;;
10985;SDS011;5546;48.714;8.738;2023-06-22T13:06:40;9.45;;;5.95;;
10985;SDS011;5546;48.714;8.738;2023-06-22T13:09:06;9.00;;;6.13;;
10985;SDS011;5546;48.714;8.738;2023-06-22T13:11:32;8.05;;;5.88;;
10985;SDS011;5546;48.714;8.738;2023-06-22T13:13:58;11.27;;;6.07;;
10985;SDS011;5546;48.714;8.738;2023-06-22T13:16:24;10.35;;;5.85;;
10985;SDS011;5546;48.714;8.738;2023-06-22T13:18:50;9.90;;;5.50;;
10985;SDS011;5546;48.714;8.738;2023-06-22T13:21:16;11.70;;;6.10;;
10985;SDS011;5546;48.714;8.738;2023-06-22T13:23:41;10.95;;;5.90;;
10985;SDS011;5546;48.714;8.738;2023-06-22T13:26:07;11.98;;;6.15;;
10985;SDS011;5546;48.714;8.738;2023-06-22T13:28:33;11.43;;;5.80;;
10985;SDS011;5546;48.714;8.738;2023-06-22T13:30:59;10.73;;;6.00;;
10985;SDS011;5546;48.714;8.738;2023-06-22T13:33:24;11.32;;;5.88;;
10985;SDS011;5546;48.714;8.738;2023-06-22T13:35:50;13.13;;;5.97;;
10985;SDS011;5546;48.714;8.738;2023-06-22T13:38:16;10.30;;;6.30;;
10985;SDS011;5546;48.714;8.738;2023-06-22T13:40:42;11.15;;;6.00;;
10985;SDS011;5546;48.714;8.738;2023-06-22T13:43:08;12.00;;;6.40;;
10985;SDS011;5546;48.714;8.738;2023-06-22T13:45:34;12.98;;;5.78;;
10985;SDS011;5546;48.714;8.738;2023-06-22T13:48:00;13.30;;;6.45;;
10985;SDS011;5546;48.714;8.738;2023-06-22T13:50:26;10.45;;;5.82;;
10985;SDS011;5546;48.714;8.738;2023-06-22T13:52:54;14.55;;;5.28;;
10985;SDS011;5546;48.714;8.738;2023-06-22T13:55:19;10.50;;;4.28;;
10985;SDS011;5546;48.714;8.738;2023-06-22T13:57:46;15.55;;;5.10;;
10985;SDS011;5546;48.714;8.738;2023-06-22T14:00:12;10.88;;;4.22;;
10985;SDS011;5546;48.714;8.738;2023-06-22T14:02:38;10.63;;;4.60;;
10985;SDS011;5546;48.714;8.738;2023-06-22T14:05:04;11.02;;;4.22;;
10985;SDS011;5546;48.714;8.738;2023-06-22T14:07:30;8.50;;;4.63;;
10985;SDS011;5546;48.714;8.738;2023-06-22T14:09:56;14.85;;;4.38;;
10985;SDS011;5546;48.714;8.738;2023-06-22T14:12:23;15.75;;;4.45;;
10985;SDS011;5546;48.714;8.738;2023-06-22T14:14:49;9.45;;;3.97;;
10985;SDS011;5546;48.714;8.738;2023-06-22T14:17:15;9.15;;;4.20;;
10985;SDS011;5546;48.714;8.738;2023-06-22T14:19:40;10.25;;;4.35;;
10985;SDS011;5546;48.714;8.738;2023-06-22T14:22:06;12.13;;;4.57;;
10985;SDS011;5546;48.714;8.738;2023-06-22T14:24:32;9.07;;;3.92;;
10985;SDS011;5546;48.714;8.738;2023-06-22T14:26:58;9.07;;;3.97;;
10985;SDS011;5546;48.714;8.738;2023-06-22T14:29:27;13.57;;;3.58;;
10985;SDS011;5546;48.714;8.738;2023-06-22T14:31:53;10.30;;;3.63;;
10985;SDS011;5546;48.714;8.738;2023-06-22T14:34:18;8.35;;;3.85;;
10985;SDS011;5546;48.714;8.738;2023-06-22T14:36:44;11.23;;;4.38;;
10985;SDS011;5546;48.714;8.738;2023-06-22T14:39:10;10.00;;;4.25;;
10985;SDS011;5546;48.714;8.738;2023-06-22T14:41:36;11.70;;;3.63;;
10985;SDS011;5546;48.714;8.738;2023-06-22T14:44:02;11.25;;;4.88;;
10985;SDS011;5546;48.714;8.738;2023-06-22T14:46:27;10.40;;;3.97;;
10985;SDS011;5546;48.714;8.738;2023-06-22T14:48:53;12.70;;;3.78;;
10985;SDS011;5546;48.714;8.738;2023-06-22T14:51:18;12.25;;;4.07;;